createdAt,value
2018-12-27T00:01:11.394Z,1.90
2018-12-27T00:03:52.135Z,1.90
2018-12-27T00:06:32.943Z,1.90
2018-12-27T00:09:13.739Z,1.90
2018-12-27T00:11:54.462Z,1.90
2018-12-27T00:14:35.438Z,1.90
2018-12-27T00:17:15.853Z,1.90
2018-12-27T00:19:56.394Z,1.80
2018-12-27T00:22:37.363Z,1.90
2018-12-27T00:25:18.093Z,1.90
2018-12-27T00:27:59.031Z,1.90
2018-12-27T00:30:40.042Z,1.90
2018-12-27T00:33:20.809Z,1.80
2018-12-27T00:36:01.547Z,1.90
2018-12-27T00:38:42.591Z,1.80
2018-12-27T00:41:23.894Z,1.90
2018-12-27T00:44:04.489Z,1.90
2018-12-27T00:46:45.591Z,1.90
2018-12-27T00:49:26.130Z,1.90
2018-12-27T00:52:07.197Z,1.80
2018-12-27T00:54:47.987Z,1.80
2018-12-27T00:57:29.038Z,1.90
2018-12-27T01:00:09.975Z,1.80
2018-12-27T01:02:50.466Z,1.90
2018-12-27T01:05:31.331Z,1.90
2018-12-27T01:08:12.346Z,1.90
2018-12-27T01:10:53.171Z,1.90
2018-12-27T01:13:31.971Z,1.90
2018-12-27T01:16:19.810Z,1.90
2018-12-27T01:19:07.915Z,1.90
2018-12-27T01:21:55.762Z,1.80
2018-12-27T01:24:43.982Z,1.80
2018-12-27T01:27:31.830Z,2.00
2018-12-27T01:30:19.698Z,1.90
2018-12-27T01:33:07.557Z,1.80
2018-12-27T01:35:55.711Z,1.80
2018-12-27T01:38:43.601Z,1.80
2018-12-27T01:41:31.790Z,1.80
2018-12-27T01:44:12.534Z,1.80
2018-12-27T01:46:53.585Z,1.80
2018-12-27T01:49:34.617Z,1.80
2018-12-27T01:52:15.145Z,1.80
2018-12-27T01:54:56.002Z,1.90
2018-12-27T01:57:36.878Z,1.90
2018-12-27T02:00:18.157Z,1.90
2018-12-27T02:02:58.753Z,1.90
2018-12-27T02:05:39.305Z,2.00
2018-12-27T02:08:20.388Z,2.00
2018-12-27T02:11:01.870Z,1.90
2018-12-27T02:13:42.958Z,1.90
2018-12-27T02:16:23.222Z,2.00
2018-12-27T02:19:04.054Z,1.90
2018-12-27T02:21:45.150Z,1.80
2018-12-27T02:24:26.299Z,1.70
2018-12-27T02:27:06.626Z,1.80
2018-12-27T02:29:47.614Z,1.80
2018-12-27T02:32:28.346Z,1.90
2018-12-27T02:35:08.877Z,1.90
2018-12-27T02:37:49.765Z,1.90
2018-12-27T02:40:30.822Z,1.90
2018-12-27T02:43:11.523Z,1.90
2018-12-27T02:45:52.611Z,1.80
2018-12-27T02:48:33.166Z,1.80
2018-12-27T02:51:13.996Z,1.90
2018-12-27T02:53:54.537Z,1.80
2018-12-27T02:56:34.809Z,1.80
2018-12-27T02:59:16.342Z,1.80
2018-12-27T03:01:56.642Z,1.80
2018-12-27T03:04:37.809Z,1.90
2018-12-27T03:07:18.236Z,1.90
2018-12-27T03:09:59.014Z,1.90
2018-12-27T03:12:39.986Z,1.90
2018-12-27T03:15:20.692Z,1.90
2018-12-27T03:18:01.874Z,1.90
2018-12-27T03:20:42.924Z,1.90
2018-12-27T03:23:23.680Z,1.80
2018-12-27T03:26:04.674Z,1.90
2018-12-27T03:28:46.114Z,1.80
2018-12-27T03:31:26.887Z,1.80
2018-12-27T03:34:07.775Z,1.80
2018-12-27T03:36:48.446Z,1.70
2018-12-27T03:39:29.398Z,1.80
2018-12-27T03:42:10.059Z,1.90
2018-12-27T03:44:50.912Z,1.90
2018-12-27T03:47:31.579Z,1.90
2018-12-27T03:50:12.571Z,1.90
2018-12-27T03:52:53.498Z,1.80
2018-12-27T03:55:34.427Z,1.80
2018-12-27T03:58:15.730Z,1.90
2018-12-27T04:00:56.621Z,1.80
2018-12-27T04:03:37.323Z,1.90
2018-12-27T04:06:18.426Z,1.90
2018-12-27T04:08:58.989Z,1.80
2018-12-27T04:11:40.237Z,1.90
2018-12-27T04:14:20.523Z,1.90
2018-12-27T04:17:01.196Z,1.90
2018-12-27T04:19:41.861Z,1.90
2018-12-27T04:22:22.432Z,1.90
2018-12-27T04:25:03.884Z,2.10
2018-12-27T04:27:44.598Z,2.00
2018-12-27T04:30:25.090Z,1.90
2018-12-27T04:33:05.986Z,2.00
2018-12-27T04:35:47.079Z,2.00
2018-12-27T04:38:28.043Z,2.10
2018-12-27T04:41:08.960Z,2.00
2018-12-27T04:43:49.410Z,2.00
2018-12-27T04:46:30.318Z,2.00
2018-12-27T04:49:11.664Z,2.00
2018-12-27T04:51:52.901Z,2.10
2018-12-27T04:54:33.485Z,2.00
2018-12-27T04:57:14.199Z,2.20
2018-12-27T04:59:55.241Z,2.20
2018-12-27T05:02:36.684Z,2.20
2018-12-27T05:05:17.842Z,2.30
2018-12-27T05:08:00.434Z,2.30
2018-12-27T05:10:41.275Z,2.30
2018-12-27T05:13:21.974Z,2.30
2018-12-27T05:16:02.829Z,2.20
2018-12-27T05:18:43.427Z,2.30
2018-12-27T05:21:24.422Z,2.30
2018-12-27T05:24:05.249Z,2.30
2018-12-27T05:26:46.456Z,2.30
2018-12-27T05:29:27.021Z,2.20
2018-12-27T05:32:08.053Z,2.30
2018-12-27T05:34:48.961Z,2.30
2018-12-27T05:37:29.998Z,2.20
2018-12-27T05:40:11.036Z,2.30
2018-12-27T05:42:51.525Z,2.20
2018-12-27T05:45:32.017Z,2.20
2018-12-27T05:48:13.253Z,2.10
2018-12-27T05:50:52.317Z,2.10
2018-12-27T05:53:40.422Z,2.20
2018-12-27T05:56:20.802Z,2.20
2018-12-27T05:59:01.398Z,2.20
2018-12-27T06:01:42.249Z,2.20
2018-12-27T06:04:22.839Z,2.00
2018-12-27T06:07:03.526Z,2.10
2018-12-27T06:09:44.002Z,2.10
2018-12-27T06:12:24.606Z,2.00
2018-12-27T06:15:05.634Z,2.10
2018-12-27T06:17:46.581Z,2.00
2018-12-27T06:20:27.301Z,2.10
2018-12-27T06:23:08.173Z,2.20
2018-12-27T06:25:49.173Z,2.10
2018-12-27T06:28:30.052Z,2.10
2018-12-27T06:31:10.610Z,2.10
2018-12-27T06:33:51.418Z,2.10
2018-12-27T06:36:32.279Z,2.10
2018-12-27T06:39:13.266Z,2.10
2018-12-27T06:41:54.214Z,2.20
2018-12-27T06:44:35.230Z,2.20
2018-12-27T06:47:16.018Z,2.20
2018-12-27T06:49:57.154Z,2.30
2018-12-27T06:52:37.687Z,2.20
2018-12-27T06:55:18.898Z,2.20
2018-12-27T06:57:59.366Z,2.30
2018-12-27T07:00:40.682Z,2.30
2018-12-27T07:03:21.502Z,2.30
2018-12-27T07:06:01.866Z,2.30
2018-12-27T07:08:42.673Z,1.10
2018-12-27T07:11:23.695Z,2.30
2018-12-27T07:14:04.399Z,2.30
2018-12-27T07:16:45.294Z,2.20
2018-12-27T07:19:26.224Z,2.30
2018-12-27T07:22:06.858Z,2.30
2018-12-27T07:24:47.318Z,2.40
2018-12-27T07:27:28.433Z,2.40
2018-12-27T07:30:08.798Z,2.40
2018-12-27T07:32:49.434Z,2.40
2018-12-27T07:35:30.277Z,2.20
2018-12-27T07:38:10.993Z,2.20
2018-12-27T07:40:51.665Z,2.30
2018-12-27T07:43:32.450Z,2.20
2018-12-27T07:46:13.150Z,2.20
2018-12-27T07:48:53.990Z,2.10
2018-12-27T07:51:34.694Z,2.10
2018-12-27T07:54:15.651Z,2.10
2018-12-27T07:56:56.182Z,2.10
2018-12-27T07:59:37.262Z,2.10
2018-12-27T08:02:17.898Z,2.10
2018-12-27T08:05:03.972Z,2.00
2018-12-27T08:07:40.694Z,2.10
2018-12-27T08:10:21.474Z,2.10
2018-12-27T08:13:02.658Z,2.10
2018-12-27T08:15:46.406Z,2.20
2018-12-27T08:18:26.874Z,2.20
2018-12-27T08:21:08.004Z,2.30
2018-12-27T08:23:48.891Z,2.30
2018-12-27T08:26:29.678Z,2.30
2018-12-27T08:29:10.707Z,2.30
2018-12-27T08:31:51.677Z,2.50
2018-12-27T08:34:32.540Z,2.50
2018-12-27T08:37:13.178Z,2.60
2018-12-27T08:39:54.428Z,2.70
2018-12-27T08:42:35.802Z,2.80
2018-12-27T08:45:16.210Z,2.90
2018-12-27T08:47:56.987Z,3.00
2018-12-27T08:50:37.685Z,3.00
2018-12-27T08:53:18.238Z,3.00
2018-12-27T08:55:59.445Z,3.10
2018-12-27T08:58:39.944Z,3.20
2018-12-27T09:01:20.931Z,3.10
2018-12-27T09:04:01.930Z,3.20
2018-12-27T09:06:42.918Z,3.20
2018-12-27T09:09:23.770Z,3.20
2018-12-27T09:12:05.014Z,3.30
2018-12-27T09:14:45.586Z,3.20
2018-12-27T09:17:26.126Z,3.20
2018-12-27T09:20:07.262Z,3.30
2018-12-27T09:22:48.062Z,3.40
2018-12-27T09:25:29.195Z,3.40
2018-12-27T09:28:09.509Z,3.40
2018-12-27T09:30:50.102Z,3.40
2018-12-27T09:33:30.899Z,3.40
2018-12-27T09:36:11.889Z,3.50
2018-12-27T09:38:52.886Z,3.50
2018-12-27T09:41:33.896Z,3.50
2018-12-27T09:44:14.494Z,3.40
2018-12-27T09:46:55.310Z,3.50
2018-12-27T09:49:36.618Z,3.50
2018-12-27T09:52:17.883Z,3.60
2018-12-27T09:54:58.743Z,3.60
2018-12-27T09:57:39.562Z,3.70
2018-12-27T10:00:20.234Z,3.70
2018-12-27T10:03:01.215Z,3.70
2018-12-27T10:05:41.827Z,3.70
2018-12-27T10:08:22.585Z,3.60
2018-12-27T10:11:03.286Z,3.60
2018-12-27T10:13:44.373Z,3.60
2018-12-27T10:16:28.346Z,3.70
2018-12-27T10:19:09.425Z,3.70
2018-12-27T10:21:50.183Z,3.80
2018-12-27T10:24:31.194Z,3.80
2018-12-27T10:27:11.918Z,3.80
2018-12-27T10:29:50.742Z,3.80
2018-12-27T10:32:38.509Z,3.80
2018-12-27T10:35:26.298Z,3.60
2018-12-27T10:38:14.079Z,3.60
2018-12-27T10:41:01.860Z,3.70
2018-12-27T10:43:49.633Z,3.70
2018-12-27T10:46:37.416Z,3.80
2018-12-27T10:49:25.177Z,3.80
2018-12-27T10:52:12.950Z,3.90
2018-12-27T10:55:01.057Z,4.00
2018-12-27T10:57:48.829Z,4.10
2018-12-27T11:00:29.890Z,4.20
2018-12-27T11:03:11.012Z,4.20
2018-12-27T11:05:52.070Z,4.30
2018-12-27T11:08:32.990Z,4.30
2018-12-27T11:11:14.490Z,4.20
2018-12-27T11:13:55.707Z,4.30
2018-12-27T11:16:36.162Z,4.30
2018-12-27T11:19:17.487Z,4.20
2018-12-27T11:21:58.362Z,4.30
2018-12-27T11:24:39.354Z,4.30
2018-12-27T11:27:20.687Z,4.30
2018-12-27T11:30:01.450Z,4.10
2018-12-27T11:32:42.394Z,4.10
2018-12-27T11:35:23.074Z,4.00
2018-12-27T11:38:03.937Z,4.10
2018-12-27T11:40:44.466Z,4.10
2018-12-27T11:43:24.950Z,4.40
2018-12-27T11:46:05.557Z,4.80
2018-12-27T11:48:46.282Z,5.10
2018-12-27T11:51:27.506Z,5.40
2018-12-27T11:54:08.142Z,5.70
2018-12-27T11:56:48.865Z,5.90
2018-12-27T11:59:30.085Z,6.00
2018-12-27T12:02:10.919Z,5.90
2018-12-27T12:04:51.392Z,6.10
2018-12-27T12:07:32.524Z,6.30
2018-12-27T12:10:13.326Z,6.10
2018-12-27T12:12:53.765Z,6.00
2018-12-27T12:15:34.740Z,6.10
2018-12-27T12:18:15.382Z,6.30
2018-12-27T12:20:56.474Z,6.60
2018-12-27T12:23:37.325Z,6.80
2018-12-27T12:26:18.259Z,7.20
2018-12-27T12:28:59.450Z,7.40
2018-12-27T12:31:28.145Z,7.40
2018-12-27T12:34:15.927Z,7.20
2018-12-27T12:37:03.869Z,7.30
2018-12-27T12:39:51.658Z,7.40
2018-12-27T12:42:39.429Z,7.40
2018-12-27T12:45:27.210Z,7.60
2018-12-27T12:48:14.990Z,7.70
2018-12-27T12:51:03.022Z,7.50
2018-12-27T12:53:51.139Z,7.40
2018-12-27T12:56:38.910Z,7.50
2018-12-27T12:59:27.010Z,7.40
2018-12-27T13:02:07.434Z,7.20
2018-12-27T13:04:48.334Z,7.50
2018-12-27T13:07:29.456Z,7.80
2018-12-27T13:10:10.078Z,7.90
2018-12-27T13:12:50.958Z,7.80
2018-12-27T13:15:31.930Z,7.50
2018-12-27T13:18:12.783Z,7.60
2018-12-27T13:20:53.770Z,7.80
2018-12-27T13:23:34.718Z,7.60
2018-12-27T13:26:15.984Z,7.60
2018-12-27T13:28:57.006Z,7.10
2018-12-27T13:31:38.207Z,7.50
2018-12-27T13:34:19.082Z,7.40
2018-12-27T13:36:59.494Z,7.40
2018-12-27T13:39:40.446Z,7.20
2018-12-27T13:42:21.026Z,7.30
2018-12-27T13:45:02.342Z,7.30
2018-12-27T13:47:43.404Z,7.60
2018-12-27T13:50:24.335Z,6.90
2018-12-27T13:53:05.274Z,6.80
2018-12-27T13:55:46.116Z,6.80
2018-12-27T13:58:26.955Z,6.70
2018-12-27T14:01:07.614Z,6.50
2018-12-27T14:03:48.521Z,6.30
2018-12-27T14:06:32.855Z,6.20
2018-12-27T14:09:11.766Z,6.20
2018-12-27T14:11:52.837Z,6.10
2018-12-27T14:14:34.250Z,5.90
2018-12-27T14:17:15.217Z,5.90
2018-12-27T14:19:56.010Z,5.90
2018-12-27T14:22:36.691Z,4.70
2018-12-27T14:25:17.870Z,5.80
2018-12-27T14:27:58.738Z,5.80
2018-12-27T14:30:39.970Z,5.70
2018-12-27T14:33:20.502Z,5.50
2018-12-27T14:36:00.925Z,5.50
2018-12-27T14:38:41.091Z,5.40
2018-12-27T14:41:22.308Z,5.50
2018-12-27T14:44:03.169Z,5.10
2018-12-27T14:46:43.714Z,5.30
2018-12-27T14:49:24.277Z,5.40
2018-12-27T14:52:04.626Z,5.20
2018-12-27T14:54:45.843Z,5.00
2018-12-27T14:57:26.374Z,4.80
2018-12-27T15:00:06.970Z,4.90
2018-12-27T15:02:48.062Z,4.80
2018-12-27T15:05:28.618Z,4.70
2018-12-27T15:08:08.993Z,4.70
2018-12-27T15:10:49.950Z,4.70
2018-12-27T15:13:30.818Z,4.80
2018-12-27T15:16:11.256Z,4.70
2018-12-27T15:18:52.375Z,4.70
2018-12-27T15:21:32.906Z,4.70
2018-12-27T15:24:13.654Z,4.70
2018-12-27T15:26:54.210Z,4.60
2018-12-27T15:29:35.080Z,4.70
2018-12-27T15:32:16.026Z,4.60
2018-12-27T15:34:56.436Z,4.60
2018-12-27T15:37:37.334Z,4.50
2018-12-27T15:40:18.382Z,4.30
2018-12-27T15:42:59.172Z,4.30
2018-12-27T15:45:39.802Z,4.20
2018-12-27T15:48:20.221Z,4.20
2018-12-27T15:51:01.707Z,4.20
2018-12-27T15:53:40.413Z,4.10
2018-12-27T15:56:28.217Z,4.20
2018-12-27T15:59:16.234Z,4.20
2018-12-27T16:04:57.838Z,4.00
2018-12-27T16:07:45.619Z,3.90
2018-12-27T16:10:35.258Z,3.80
2018-12-27T16:13:23.154Z,3.80
2018-12-27T16:16:11.186Z,3.50
2018-12-27T16:18:59.329Z,3.40
2018-12-27T16:21:47.112Z,3.30
2018-12-27T16:24:34.875Z,3.50
2018-12-27T16:27:22.942Z,3.40
2018-12-27T16:30:11.086Z,3.50
2018-12-27T16:32:58.870Z,3.50
2018-12-27T16:35:46.654Z,3.40
2018-12-27T16:41:41.289Z,3.30
2018-12-27T16:44:21.598Z,3.00
2018-12-27T16:47:02.461Z,3.10
2018-12-27T16:49:43.166Z,2.90
2018-12-27T16:52:24.178Z,2.80
2018-12-27T16:55:04.824Z,2.80
2018-12-27T16:57:45.554Z,2.60
2018-12-27T17:00:26.331Z,2.60
2018-12-27T17:03:07.558Z,2.70
2018-12-27T17:05:48.446Z,2.60
2018-12-27T17:08:29.451Z,2.60
2018-12-27T17:11:09.866Z,2.40
2018-12-27T17:13:50.801Z,2.40
2018-12-27T17:16:31.334Z,2.40
2018-12-27T17:19:12.151Z,2.50
2018-12-27T17:21:52.718Z,2.50
2018-12-27T17:24:33.742Z,2.50
2018-12-27T17:27:14.622Z,2.50
2018-12-27T17:29:55.694Z,2.50
2018-12-27T17:32:37.046Z,2.60
2018-12-27T17:35:18.327Z,2.60
2018-12-27T17:37:59.043Z,2.80
2018-12-27T17:40:39.906Z,2.70
2018-12-27T17:43:20.811Z,2.70
2018-12-27T17:46:01.783Z,2.40
2018-12-27T17:48:42.845Z,2.70
2018-12-27T17:51:23.061Z,2.70
2018-12-27T17:54:04.016Z,2.60
2018-12-27T17:56:45.114Z,2.50
2018-12-27T17:59:25.517Z,2.40
2018-12-27T18:02:06.518Z,2.20
2018-12-27T18:04:47.236Z,2.30
2018-12-27T18:07:30.784Z,2.30
2018-12-27T18:10:10.234Z,2.30
2018-12-27T18:12:51.170Z,2.20
2018-12-27T18:15:31.874Z,2.10
2018-12-27T18:18:12.515Z,2.20
2018-12-27T18:20:53.178Z,2.30
2018-12-27T18:23:33.594Z,2.40
2018-12-27T18:26:14.135Z,2.40
2018-12-27T18:28:54.585Z,2.30
2018-12-27T18:31:35.133Z,2.30
2018-12-27T18:34:15.894Z,2.40
2018-12-27T18:36:56.630Z,2.40
2018-12-27T18:39:37.942Z,2.20
2018-12-27T18:42:18.515Z,2.30
2018-12-27T18:44:59.347Z,2.20
2018-12-27T18:47:39.962Z,2.10
2018-12-27T18:50:20.776Z,2.20
2018-12-27T18:53:01.772Z,2.10
2018-12-27T18:55:42.734Z,2.10
2018-12-27T18:58:23.298Z,2.20
2018-12-27T19:01:04.067Z,2.30
2018-12-27T19:03:44.629Z,2.30
2018-12-27T19:06:25.542Z,2.20
2018-12-27T19:09:06.505Z,2.10
2018-12-27T19:11:47.590Z,2.20
2018-12-27T19:14:28.077Z,2.20
2018-12-27T19:17:08.689Z,2.20
2018-12-27T19:19:49.821Z,2.20
2018-12-27T19:22:30.670Z,2.10
2018-12-27T19:25:11.296Z,2.30
2018-12-27T19:27:52.258Z,2.30
2018-12-27T19:30:32.833Z,2.50
2018-12-27T19:33:13.698Z,2.40
2018-12-27T19:35:54.478Z,2.40
2018-12-27T19:38:35.626Z,2.40
2018-12-27T19:41:15.971Z,2.40
2018-12-27T19:43:57.019Z,2.30
2018-12-27T19:46:37.517Z,2.20
2018-12-27T19:49:18.362Z,2.20
2018-12-27T19:51:59.982Z,2.20
2018-12-27T19:54:41.046Z,2.20
2018-12-27T19:57:21.521Z,2.20
2018-12-27T20:00:02.148Z,2.30
2018-12-27T20:02:43.015Z,2.30
2018-12-27T20:05:23.490Z,2.40
2018-12-27T20:08:04.332Z,2.50
2018-12-27T20:10:44.966Z,2.50
2018-12-27T20:13:25.533Z,2.50
2018-12-27T20:16:06.498Z,2.40
2018-12-27T20:18:47.322Z,2.30
2018-12-27T20:21:27.786Z,2.20
2018-12-27T20:24:07.975Z,2.20
2018-12-27T20:26:49.035Z,2.30
2018-12-27T20:29:29.539Z,2.30
2018-12-27T20:32:10.293Z,2.20
2018-12-27T20:34:51.427Z,2.30
2018-12-27T20:37:36.098Z,2.30
2018-12-27T20:40:16.650Z,2.30
2018-12-27T20:42:57.499Z,2.30
2018-12-27T20:45:38.340Z,2.30
2018-12-27T20:48:19.541Z,2.30
2018-12-27T20:51:00.051Z,2.40
2018-12-27T20:53:40.785Z,2.50
2018-12-27T20:56:21.939Z,2.40
2018-12-27T20:59:02.186Z,2.50
2018-12-27T21:01:43.230Z,2.40
2018-12-27T21:04:23.848Z,2.10
2018-12-27T21:07:04.526Z,1.90
2018-12-27T21:09:44.888Z,2.00
2018-12-27T21:12:25.795Z,1.80
2018-12-27T21:15:06.282Z,1.80
2018-12-27T21:17:47.666Z,1.60
2018-12-27T21:20:28.797Z,1.80
2018-12-27T21:23:09.530Z,1.70
2018-12-27T21:25:50.474Z,1.70
2018-12-27T21:28:31.418Z,1.60
2018-12-27T21:31:12.305Z,1.60
2018-12-27T21:33:52.731Z,1.60
2018-12-27T21:36:33.925Z,1.80
2018-12-27T21:39:15.006Z,1.80
2018-12-27T21:41:55.882Z,1.80
2018-12-27T21:44:37.246Z,1.80
2018-12-27T21:47:17.705Z,1.80
2018-12-27T21:49:58.142Z,1.80
2018-12-27T21:52:39.449Z,1.60
2018-12-27T21:55:20.246Z,1.30
2018-12-27T21:58:01.062Z,1.50
2018-12-27T22:00:42.011Z,1.50
2018-12-27T22:03:22.758Z,1.40
2018-12-27T22:06:03.563Z,1.30
2018-12-27T22:08:44.653Z,1.40
2018-12-27T22:11:26.661Z,1.40
2018-12-27T22:14:07.821Z,1.40
2018-12-27T22:16:48.593Z,1.60
2018-12-27T22:19:29.182Z,1.60
2018-12-27T22:22:10.045Z,1.50
2018-12-27T22:24:51.314Z,1.50
2018-12-27T22:27:32.121Z,1.60
2018-12-27T22:30:13.042Z,1.60
2018-12-27T22:32:54.002Z,1.50
2018-12-27T22:35:34.811Z,1.40
2018-12-27T22:38:15.376Z,1.30
2018-12-27T22:40:56.350Z,1.30
2018-12-27T22:43:37.291Z,1.20
2018-12-27T22:46:17.771Z,1.30
2018-12-27T22:48:58.656Z,1.30
2018-12-27T22:51:39.539Z,1.40
2018-12-27T22:54:20.743Z,1.50
2018-12-27T22:57:01.187Z,1.50
2018-12-27T22:59:41.849Z,1.50
2018-12-27T23:02:22.889Z,1.50
2018-12-27T23:05:03.410Z,1.30
2018-12-27T23:07:43.752Z,1.00
2018-12-27T23:10:25.081Z,1.40
2018-12-27T23:13:05.715Z,1.30
2018-12-27T23:15:46.943Z,1.30
2018-12-27T23:18:28.159Z,1.30
2018-12-27T23:21:08.755Z,1.30
2018-12-27T23:23:47.470Z,1.30
2018-12-27T23:26:35.235Z,1.40
2018-12-27T23:29:23.014Z,1.40
2018-12-27T23:32:10.831Z,1.30
2018-12-27T23:34:58.664Z,1.30
2018-12-27T23:37:46.766Z,1.60
2018-12-27T23:40:34.806Z,1.60
2018-12-27T23:43:15.526Z,1.60
2018-12-27T23:45:56.312Z,1.60
2018-12-27T23:48:37.115Z,1.40
2018-12-27T23:51:18.286Z,1.30
2018-12-27T23:53:59.238Z,1.20
2018-12-27T23:56:40.079Z,1.20
2018-12-27T23:59:21.013Z,1.20
